createdAt,value
2023-11-23T00:00:00.463Z,14.84
2023-11-23T00:05:00.635Z,14.87
2023-11-23T00:10:00.508Z,13.28
2023-11-23T00:15:03.482Z,15.40
2023-11-23T00:20:00.480Z,15.63
2023-11-23T00:25:00.566Z,15.52
2023-11-23T00:30:02.128Z,14.89
2023-11-23T00:35:01.674Z,14.24
2023-11-23T00:40:01.378Z,15.16
2023-11-23T00:45:01.099Z,15.67
2023-11-23T00:50:00.523Z,16.84
2023-11-23T00:55:03.401Z,16.04
2023-11-23T01:00:00.596Z,17.00
2023-11-23T01:05:00.660Z,17.80
2023-11-23T01:10:01.307Z,16.94
2023-11-23T01:15:02.667Z,16.25
2023-11-23T01:20:00.397Z,17.85
2023-11-23T01:25:00.402Z,16.99
2023-11-23T01:30:03.180Z,16.13
2023-11-23T01:35:02.447Z,17.03
2023-11-23T01:40:00.821Z,16.68
2023-11-23T01:45:02.335Z,17.29
2023-11-23T01:50:00.870Z,16.67
2023-11-23T01:55:00.551Z,15.78
2023-11-23T02:00:00.724Z,16.81
2023-11-23T02:05:00.531Z,15.84
2023-11-23T02:10:00.346Z,17.78
2023-11-23T02:15:03.065Z,16.95
2023-11-23T02:20:00.627Z,17.08
2023-11-23T02:25:00.954Z,16.97
2023-11-23T02:30:00.954Z,16.50
2023-11-23T02:35:02.020Z,17.99
2023-11-23T02:40:00.388Z,16.86
2023-11-23T02:45:01.703Z,18.43
2023-11-23T02:50:00.815Z,18.68
2023-11-23T02:55:01.999Z,17.87
2023-11-23T03:00:00.637Z,17.80
2023-11-23T03:05:00.934Z,18.61
2023-11-23T03:10:00.462Z,17.89
2023-11-23T03:15:03.056Z,19.84
2023-11-23T03:20:00.752Z,17.16
2023-11-23T03:25:00.602Z,18.43
2023-11-23T03:30:01.692Z,19.14
2023-11-23T03:35:01.954Z,17.42
2023-11-23T03:40:00.443Z,18.98
2023-11-23T03:45:00.595Z,18.35
2023-11-23T03:50:00.512Z,18.90
2023-11-23T03:55:03.212Z,18.57
2023-11-23T04:00:04.133Z,18.03
2023-11-23T04:05:00.371Z,16.95
2023-11-23T04:10:00.634Z,17.36
2023-11-23T04:15:01.011Z,16.47
2023-11-23T04:20:00.379Z,16.10
2023-11-23T04:25:06.723Z,15.77
2023-11-23T04:30:00.603Z,15.06
2023-11-23T04:35:01.646Z,17.21
2023-11-23T04:40:00.919Z,16.69
2023-11-23T04:45:04.353Z,16.58
2023-11-23T04:50:00.365Z,17.20
2023-11-23T04:55:00.489Z,17.28
2023-11-23T05:00:00.692Z,17.23
2023-11-23T05:05:00.507Z,15.76
2023-11-23T05:10:02.502Z,16.67
2023-11-23T05:15:02.762Z,17.66
2023-11-23T05:20:01.421Z,16.65
2023-11-23T05:25:00.536Z,16.62
2023-11-23T05:30:02.466Z,15.90
2023-11-23T05:35:02.587Z,16.67
2023-11-23T05:40:00.592Z,18.14
2023-11-23T05:45:00.950Z,18.74
2023-11-23T05:50:01.174Z,18.33
2023-11-23T05:55:01.494Z,18.32
2023-11-23T06:00:00.592Z,17.49
2023-11-23T06:05:00.937Z,19.48
2023-11-23T06:10:00.400Z,18.46
2023-11-23T06:15:02.557Z,19.26
2023-11-23T06:20:00.481Z,17.64
2023-11-23T06:25:00.481Z,17.63
2023-11-23T06:30:00.556Z,18.00
2023-11-23T06:35:01.689Z,17.38
2023-11-23T06:40:01.126Z,18.32
2023-11-23T06:45:00.844Z,18.47
2023-11-23T06:50:00.361Z,19.02
2023-11-23T06:55:00.730Z,18.51
2023-11-23T07:00:01.168Z,16.55
2023-11-23T07:05:00.390Z,16.70
2023-11-23T07:10:00.484Z,17.94
2023-11-23T07:15:00.963Z,17.11
2023-11-23T07:20:00.375Z,17.57
2023-11-23T07:25:00.662Z,17.86
2023-11-23T07:30:00.601Z,17.78
2023-11-23T07:35:02.627Z,15.71
2023-11-23T07:40:00.402Z,17.04
2023-11-23T07:45:01.272Z,16.70
2023-11-23T07:50:00.464Z,17.82
2023-11-23T07:55:01.907Z,17.15
2023-11-23T08:00:01.107Z,17.96
2023-11-23T08:05:01.119Z,17.23
2023-11-23T08:10:01.093Z,16.64
2023-11-23T08:15:01.752Z,18.66
2023-11-23T08:20:00.445Z,16.93
2023-11-23T08:25:00.448Z,16.75
2023-11-23T08:30:00.602Z,16.05
2023-11-23T08:35:01.954Z,15.58
2023-11-23T08:40:00.412Z,15.68
2023-11-23T08:45:00.928Z,15.53
2023-11-23T08:50:00.438Z,15.22
2023-11-23T08:55:00.465Z,15.62
2023-11-23T09:00:00.729Z,15.70
2023-11-23T09:05:00.841Z,15.47
2023-11-23T09:10:00.385Z,14.81
2023-11-23T09:15:04.878Z,15.55
2023-11-23T09:20:00.360Z,14.56
2023-11-23T09:25:00.450Z,15.12
2023-11-23T09:30:00.636Z,14.34
2023-11-23T09:35:01.566Z,15.52
2023-11-23T09:40:00.358Z,12.96
2023-11-23T09:45:00.676Z,12.24
2023-11-23T09:50:00.340Z,14.74
2023-11-23T09:55:02.551Z,14.25
2023-11-23T10:00:00.741Z,13.73
2023-11-23T10:05:00.854Z,13.19
2023-11-23T10:10:00.520Z,13.22
2023-11-23T10:15:03.527Z,12.65
2023-11-23T10:20:00.383Z,12.65
2023-11-23T10:25:00.497Z,12.80
2023-11-23T10:30:00.521Z,12.18
2023-11-23T10:35:03.734Z,13.48
2023-11-23T10:40:00.536Z,12.45
2023-11-23T10:45:04.735Z,13.22
2023-11-23T10:50:00.359Z,13.75
2023-11-23T10:55:02.609Z,12.58
2023-11-23T11:00:01.505Z,11.96
2023-11-23T11:05:00.456Z,12.19
2023-11-23T11:10:00.612Z,12.47
2023-11-23T11:15:02.152Z,12.58
2023-11-23T11:20:00.398Z,12.07
2023-11-23T11:25:00.549Z,11.44
2023-11-23T11:30:00.819Z,12.60
2023-11-23T11:35:02.340Z,12.62
2023-11-23T11:40:00.420Z,13.04
2023-11-23T11:45:04.834Z,12.59
2023-11-23T11:50:00.358Z,11.75
2023-11-23T11:55:00.678Z,11.48
2023-11-23T12:00:00.720Z,11.63
2023-11-23T12:05:02.240Z,12.19
2023-11-23T12:10:01.734Z,12.63
2023-11-23T12:15:01.684Z,13.16
2023-11-23T12:20:00.403Z,11.16
2023-11-23T12:25:00.599Z,11.35
2023-11-23T12:30:00.631Z,11.51
2023-11-23T12:35:02.253Z,12.29
2023-11-23T12:40:00.365Z,11.12
2023-11-23T12:45:00.654Z,10.53
2023-11-23T12:50:00.461Z,11.30
2023-11-23T12:55:02.581Z,10.63
2023-11-23T13:00:00.810Z,11.25
2023-11-23T13:05:00.701Z,11.65
2023-11-23T13:15:03.583Z,12.93
2023-11-23T13:20:00.784Z,11.93
2023-11-23T13:25:00.525Z,11.75
2023-11-23T13:30:00.796Z,12.27
2023-11-23T13:35:01.956Z,10.39
2023-11-23T13:40:01.402Z,11.76
2023-11-23T13:45:02.379Z,11.31
2023-11-23T13:50:00.399Z,10.85
2023-11-23T13:55:00.451Z,14.35
2023-11-23T14:00:00.707Z,11.14
2023-11-23T14:05:00.423Z,11.30
2023-11-23T14:10:02.115Z,9.02
2023-11-23T14:15:01.802Z,10.45
2023-11-23T14:20:00.513Z,10.24
2023-11-23T14:25:00.546Z,10.16
2023-11-23T14:30:00.592Z,10.24
2023-11-23T14:35:00.384Z,9.34
2023-11-23T14:40:00.527Z,8.90
2023-11-23T14:45:00.804Z,8.98
2023-11-23T14:50:00.349Z,10.61
2023-11-23T14:55:01.301Z,10.20
2023-11-23T15:00:00.619Z,9.46
2023-11-23T15:05:00.942Z,9.57
2023-11-23T15:10:00.462Z,8.96
2023-11-23T15:15:02.856Z,10.01
2023-11-23T15:20:00.374Z,9.21
2023-11-23T15:25:08.295Z,8.61
2023-11-23T15:30:00.450Z,9.64
2023-11-23T15:35:01.954Z,10.11
2023-11-23T15:40:00.435Z,8.01
2023-11-23T15:45:03.315Z,8.02
2023-11-23T15:50:00.420Z,8.79
2023-11-23T15:55:03.313Z,8.86
2023-11-23T16:00:00.502Z,8.49
2023-11-23T16:05:00.747Z,8.77
2023-11-23T16:10:00.367Z,7.96
2023-11-23T16:15:01.030Z,8.26
2023-11-23T16:25:00.503Z,8.03
2023-11-23T16:30:00.333Z,8.37
2023-11-23T16:35:00.330Z,7.71
2023-11-23T16:40:00.543Z,8.60
2023-11-23T16:45:00.253Z,7.61
2023-11-23T16:50:00.387Z,7.61
2023-11-23T16:55:02.711Z,6.68
2023-11-23T17:05:02.999Z,7.46
2023-11-23T17:10:00.706Z,7.73
2023-11-23T17:15:02.739Z,8.12
2023-11-23T17:20:01.769Z,8.37
2023-11-23T17:25:02.471Z,8.09
2023-11-23T17:30:00.615Z,6.36
2023-11-23T17:35:03.288Z,7.99
2023-11-23T17:40:02.091Z,7.96
2023-11-23T17:45:02.476Z,7.50
2023-11-23T17:50:03.140Z,8.53
2023-11-23T17:55:03.779Z,7.05
2023-11-23T18:00:01.628Z,6.95
2023-11-23T18:05:04.266Z,8.03
2023-11-23T18:10:01.453Z,7.82
2023-11-23T18:15:01.103Z,6.94
2023-11-23T18:20:01.869Z,7.91
2023-11-23T18:25:00.455Z,7.41
2023-11-23T18:30:00.671Z,6.88
2023-11-23T18:35:02.589Z,6.87
2023-11-23T18:40:00.566Z,7.02
2023-11-23T18:45:00.816Z,7.98
2023-11-23T18:50:01.081Z,7.91
2023-11-23T18:55:02.850Z,7.34
2023-11-23T19:00:00.657Z,7.45
2023-11-23T19:05:01.168Z,7.27
2023-11-23T19:10:00.568Z,7.12
2023-11-23T19:15:03.806Z,7.11
2023-11-23T19:20:00.593Z,6.28
2023-11-23T19:25:00.810Z,5.99
2023-11-23T19:30:01.455Z,6.76
2023-11-23T19:35:03.819Z,6.38
2023-11-23T19:40:01.379Z,6.17
2023-11-23T19:45:01.678Z,5.84
2023-11-23T19:50:02.368Z,6.68
2023-11-23T19:55:02.959Z,5.74
2023-11-23T20:00:01.353Z,5.69
2023-11-23T20:05:05.025Z,5.59
2023-11-23T20:10:02.780Z,5.63
2023-11-23T20:15:03.456Z,5.12
2023-11-23T20:20:01.275Z,4.16
2023-11-23T20:25:03.168Z,4.54
2023-11-23T20:30:02.183Z,4.25
2023-11-23T20:35:02.537Z,4.31
2023-11-23T20:40:01.983Z,4.29
2023-11-23T20:45:01.273Z,5.21
2023-11-23T20:50:02.084Z,4.45
2023-11-23T20:55:01.959Z,3.41
2023-11-23T21:00:02.968Z,3.95
2023-11-23T21:05:02.636Z,3.35
2023-11-23T21:10:02.725Z,2.98
2023-11-23T21:15:04.144Z,3.22
2023-11-23T21:20:01.528Z,2.70
2023-11-23T21:25:02.084Z,2.44
2023-11-23T21:30:01.325Z,3.06
2023-11-23T21:35:03.087Z,2.45
2023-11-23T21:40:02.553Z,2.98
2023-11-23T21:45:02.298Z,2.22
2023-11-23T21:50:02.586Z,3.00
2023-11-23T21:55:04.424Z,3.38
2023-11-23T22:00:02.430Z,3.74
2023-11-23T22:05:02.509Z,3.17
2023-11-23T22:10:01.040Z,2.35
2023-11-23T22:15:04.328Z,2.68
2023-11-23T22:20:00.684Z,2.27
2023-11-23T22:25:03.240Z,1.81
2023-11-23T22:30:02.901Z,2.60
2023-11-23T22:35:02.818Z,1.69
2023-11-23T22:40:01.414Z,2.03
2023-11-23T22:45:03.161Z,1.38
2023-11-23T22:50:03.687Z,1.70
2023-11-23T22:55:02.937Z,1.37
2023-11-23T23:00:08.548Z,1.13
2023-11-23T23:05:03.097Z,1.28
2023-11-23T23:10:00.934Z,1.13
2023-11-23T23:15:02.840Z,1.51
2023-11-23T23:20:02.369Z,1.16
2023-11-23T23:25:03.062Z,1.02
2023-11-23T23:30:03.634Z,0.96
2023-11-23T23:35:02.964Z,1.12
2023-11-23T23:40:03.513Z,1.39
2023-11-23T23:45:00.805Z,0.89
2023-11-23T23:50:01.118Z,1.47
2023-11-23T23:55:03.510Z,1.35
